createdAt,value
2022-12-05T00:00:36.979Z,2.20
2022-12-05T00:03:05.894Z,2.10
2022-12-05T00:05:34.918Z,2.10
2022-12-05T00:08:03.357Z,2.10
2022-12-05T00:10:32.691Z,2.10
2022-12-05T00:13:04.073Z,2.10
2022-12-05T00:15:33.132Z,2.10
2022-12-05T00:18:01.329Z,2.20
2022-12-05T00:20:31.325Z,2.20
2022-12-05T00:22:59.527Z,2.10
2022-12-05T00:25:27.528Z,2.20
2022-12-05T00:27:56.956Z,2.20
2022-12-05T00:30:24.969Z,2.20
2022-12-05T00:32:54.092Z,2.20
2022-12-05T00:35:26.102Z,2.20
2022-12-05T00:37:54.187Z,2.10
2022-12-05T00:40:23.038Z,2.10
2022-12-05T00:42:53.582Z,2.10
2022-12-05T00:45:27.676Z,2.10
2022-12-05T00:47:55.698Z,2.10
2022-12-05T00:50:23.780Z,2.10
2022-12-05T00:52:52.946Z,2.10
2022-12-05T00:55:21.626Z,2.10
2022-12-05T00:57:49.743Z,2.20
2022-12-05T01:00:22.734Z,2.20
2022-12-05T01:02:50.788Z,2.20
2022-12-05T01:05:18.941Z,2.20
2022-12-05T01:07:50.174Z,2.20
2022-12-05T01:10:22.165Z,2.20
2022-12-05T01:12:51.042Z,2.20
2022-12-05T01:15:20.038Z,2.10
2022-12-05T01:17:50.060Z,2.10
2022-12-05T01:20:18.508Z,2.10
2022-12-05T01:22:46.469Z,2.00
2022-12-05T01:25:18.116Z,2.00
2022-12-05T01:27:46.111Z,2.00
2022-12-05T01:30:14.782Z,2.00
2022-12-05T01:32:45.531Z,2.10
2022-12-05T01:35:19.673Z,2.10
2022-12-05T01:37:48.678Z,2.10
2022-12-05T01:40:19.462Z,2.10
2022-12-05T01:42:47.375Z,2.00
2022-12-05T01:45:19.072Z,2.00
2022-12-05T01:47:48.101Z,1.90
2022-12-05T01:50:21.679Z,1.90
2022-12-05T01:52:49.869Z,1.90
2022-12-05T01:55:22.073Z,1.90
2022-12-05T01:57:50.434Z,1.90
2022-12-05T02:00:22.157Z,2.00
2022-12-05T02:02:54.680Z,2.00
2022-12-05T02:05:29.048Z,2.00
2022-12-05T02:07:59.988Z,1.90
2022-12-05T02:10:32.055Z,1.90
2022-12-05T02:13:07.070Z,1.90
2022-12-05T02:15:44.072Z,1.80
2022-12-05T02:18:29.981Z,1.80
2022-12-05T02:21:19.052Z,1.80
2022-12-05T02:24:14.002Z,1.80
2022-12-05T02:27:02.099Z,1.80
2022-12-05T02:29:58.334Z,1.80
2022-12-05T02:32:38.061Z,1.80
2022-12-05T02:35:16.095Z,1.70
2022-12-05T02:37:55.268Z,1.70
2022-12-05T02:40:27.752Z,1.70
2022-12-05T02:43:01.284Z,1.70
2022-12-05T02:45:33.672Z,1.70
2022-12-05T02:48:02.840Z,1.70
2022-12-05T02:50:36.129Z,1.70
2022-12-05T02:53:07.972Z,1.80
2022-12-05T02:55:38.103Z,1.80
2022-12-05T02:58:15.648Z,1.80
2022-12-05T03:00:49.319Z,1.80
2022-12-05T03:03:21.090Z,1.80
2022-12-05T03:05:54.964Z,1.80
2022-12-05T03:08:27.374Z,1.80
2022-12-05T03:11:01.670Z,1.90
2022-12-05T03:13:34.261Z,1.90
2022-12-05T03:16:09.655Z,1.90
2022-12-05T03:18:43.531Z,1.90
2022-12-05T03:21:21.262Z,1.80
2022-12-05T03:23:54.111Z,1.80
2022-12-05T03:26:36.058Z,1.80
2022-12-05T03:29:22.045Z,1.70
2022-12-05T03:32:08.003Z,1.70
2022-12-05T03:34:55.094Z,1.80
2022-12-05T03:37:28.365Z,1.80
2022-12-05T03:40:06.516Z,1.70
2022-12-05T03:42:40.136Z,1.70
2022-12-05T03:45:13.095Z,1.80
2022-12-05T03:47:49.287Z,1.80
2022-12-05T03:50:24.086Z,1.80
2022-12-05T03:53:19.128Z,1.70
2022-12-05T03:55:53.086Z,1.70
2022-12-05T03:58:27.377Z,1.70
2022-12-05T04:00:58.641Z,1.70
2022-12-05T04:03:39.742Z,1.70
2022-12-05T04:06:16.399Z,1.70
2022-12-05T04:08:52.116Z,1.70
2022-12-05T04:11:31.395Z,1.70
2022-12-05T04:14:06.210Z,1.70
2022-12-05T04:17:00.363Z,1.70
2022-12-05T04:19:56.500Z,1.70
2022-12-05T04:22:25.087Z,1.70
2022-12-05T04:25:16.642Z,1.70
2022-12-05T04:27:52.150Z,1.70
2022-12-05T04:30:23.216Z,1.70
2022-12-05T04:32:57.025Z,1.70
2022-12-05T04:35:31.091Z,1.80
2022-12-05T04:38:05.364Z,1.80
2022-12-05T04:40:38.008Z,1.80
2022-12-05T04:43:09.124Z,1.80
2022-12-05T04:45:39.593Z,1.80
2022-12-05T04:48:13.413Z,1.80
2022-12-05T04:50:46.003Z,1.80
2022-12-05T04:53:19.513Z,1.80
2022-12-05T04:55:53.717Z,1.80
2022-12-05T04:58:28.247Z,1.80
2022-12-05T05:01:04.037Z,1.70
2022-12-05T05:03:37.707Z,1.70
2022-12-05T05:06:08.275Z,1.80
2022-12-05T05:08:36.297Z,1.70
2022-12-05T05:11:12.583Z,1.80
2022-12-05T05:13:44.202Z,1.80
2022-12-05T05:16:18.357Z,1.80
2022-12-05T05:18:47.175Z,1.80
2022-12-05T05:21:23.014Z,1.80
2022-12-05T05:23:52.105Z,1.80
2022-12-05T05:26:21.016Z,1.80
2022-12-05T05:28:53.390Z,1.80
2022-12-05T05:31:22.401Z,1.80
2022-12-05T05:33:56.130Z,1.70
2022-12-05T05:36:30.155Z,1.80
2022-12-05T05:39:03.481Z,1.70
2022-12-05T05:41:37.137Z,1.70
2022-12-05T05:44:06.133Z,1.80
2022-12-05T05:46:35.951Z,1.70
2022-12-05T05:49:05.482Z,1.70
2022-12-05T05:51:36.242Z,1.70
2022-12-05T05:54:05.048Z,1.70
2022-12-05T05:56:33.040Z,1.70
2022-12-05T05:59:03.194Z,1.70
2022-12-05T06:01:31.753Z,1.70
2022-12-05T06:04:00.200Z,1.70
2022-12-05T06:06:31.447Z,1.70
2022-12-05T06:09:00.934Z,1.70
2022-12-05T06:11:29.877Z,1.70
2022-12-05T06:14:01.249Z,1.70
2022-12-05T06:16:32.510Z,1.70
2022-12-05T06:19:01.111Z,1.80
2022-12-05T06:21:29.489Z,1.80
2022-12-05T06:23:57.555Z,1.80
2022-12-05T06:26:29.434Z,1.80
2022-12-05T06:29:01.466Z,1.80
2022-12-05T06:31:34.500Z,1.70
2022-12-05T06:34:03.336Z,1.70
2022-12-05T06:36:32.158Z,1.70
2022-12-05T06:39:00.786Z,1.80
2022-12-05T06:41:30.307Z,1.80
2022-12-05T06:44:02.160Z,1.80
2022-12-05T06:46:31.288Z,1.80
2022-12-05T06:49:00.016Z,1.80
2022-12-05T06:51:28.228Z,1.80
2022-12-05T06:53:58.047Z,1.80
2022-12-05T06:56:26.202Z,1.90
2022-12-05T06:58:59.146Z,1.90
2022-12-05T07:01:42.488Z,1.80
2022-12-05T07:04:15.646Z,1.80
2022-12-05T07:06:51.131Z,1.80
2022-12-05T07:09:21.661Z,1.80
2022-12-05T07:11:50.152Z,1.80
2022-12-05T07:17:11.657Z,1.90
2022-12-05T07:19:39.617Z,1.90
2022-12-05T07:22:15.738Z,1.90
2022-12-05T07:24:45.051Z,1.90
2022-12-05T07:27:14.252Z,1.90
2022-12-05T07:29:46.376Z,1.90
2022-12-05T07:32:14.515Z,2.00
2022-12-05T07:34:42.570Z,2.00
2022-12-05T07:37:12.405Z,2.00
2022-12-05T07:39:40.608Z,2.00
2022-12-05T07:42:08.674Z,2.00
2022-12-05T07:44:37.131Z,2.00
2022-12-05T07:47:06.513Z,2.00
2022-12-05T07:49:34.521Z,2.00
2022-12-05T07:52:03.185Z,2.00
2022-12-05T07:54:32.078Z,2.00
2022-12-05T07:57:01.546Z,2.00
2022-12-05T07:59:29.661Z,2.00
2022-12-05T08:01:57.661Z,2.00
2022-12-05T08:04:28.163Z,2.00
2022-12-05T08:06:57.185Z,2.00
2022-12-05T08:09:28.220Z,2.00
2022-12-05T08:11:57.180Z,2.00
2022-12-05T08:14:26.212Z,2.10
2022-12-05T08:16:55.088Z,2.10
2022-12-05T08:19:23.368Z,2.10
2022-12-05T08:21:57.091Z,2.10
2022-12-05T08:24:25.431Z,2.10
2022-12-05T08:26:54.135Z,2.10
2022-12-05T08:29:24.199Z,2.20
2022-12-05T08:31:53.168Z,2.20
2022-12-05T08:34:24.319Z,2.20
2022-12-05T08:36:54.231Z,2.20
2022-12-05T08:39:26.423Z,2.20
2022-12-05T08:41:54.486Z,2.20
2022-12-05T08:44:23.185Z,2.30
2022-12-05T08:46:51.521Z,2.20
2022-12-05T08:49:20.423Z,2.20
2022-12-05T08:51:48.403Z,2.20
2022-12-05T08:54:18.198Z,2.20
2022-12-05T08:56:51.151Z,2.20
2022-12-05T08:59:21.456Z,2.20
2022-12-05T09:01:51.449Z,2.20
2022-12-05T09:04:22.213Z,2.20
2022-12-05T09:06:51.800Z,2.20
2022-12-05T09:09:22.182Z,2.20
2022-12-05T09:11:51.019Z,2.20
2022-12-05T09:14:22.274Z,2.20
2022-12-05T09:16:50.467Z,2.30
2022-12-05T09:19:23.557Z,2.30
2022-12-05T09:21:52.279Z,2.20
2022-12-05T09:24:21.578Z,2.20
2022-12-05T09:26:53.279Z,2.20
2022-12-05T09:29:21.773Z,2.20
2022-12-05T09:31:52.381Z,2.20
2022-12-05T09:34:21.208Z,2.30
2022-12-05T09:37:05.725Z,2.30
2022-12-05T09:39:41.602Z,2.30
2022-12-05T09:42:31.216Z,2.30
2022-12-05T09:45:24.071Z,2.40
2022-12-05T09:47:58.354Z,2.30
2022-12-05T09:50:28.740Z,2.30
2022-12-05T09:53:08.307Z,2.30
2022-12-05T09:55:48.418Z,2.40
2022-12-05T09:58:28.241Z,2.40
2022-12-05T10:01:05.119Z,2.40
2022-12-05T10:03:42.752Z,2.40
2022-12-05T10:06:17.290Z,2.50
2022-12-05T10:09:01.618Z,2.50
2022-12-05T10:11:38.362Z,2.50
2022-12-05T10:14:19.751Z,2.50
2022-12-05T10:16:52.122Z,2.50
2022-12-05T10:19:28.210Z,2.50
2022-12-05T10:22:01.375Z,2.50
2022-12-05T10:24:35.218Z,2.50
2022-12-05T10:27:10.920Z,2.60
2022-12-05T10:29:44.085Z,2.60
2022-12-05T10:32:28.433Z,2.50
2022-12-05T10:35:03.572Z,2.60
2022-12-05T10:37:32.278Z,2.60
2022-12-05T10:40:01.339Z,2.60
2022-12-05T10:42:34.155Z,2.60
2022-12-05T10:45:06.151Z,2.60
2022-12-05T10:47:35.275Z,2.60
2022-12-05T10:50:26.362Z,2.60
2022-12-05T10:53:00.377Z,2.60
2022-12-05T10:55:35.581Z,2.50
2022-12-05T10:58:17.680Z,2.60
2022-12-05T11:00:49.105Z,2.50
2022-12-05T11:03:26.994Z,2.60
2022-12-05T11:05:57.151Z,2.60
2022-12-05T11:08:56.026Z,2.60
2022-12-05T11:11:21.429Z,2.50
2022-12-05T11:13:55.492Z,2.60
2022-12-05T11:16:28.339Z,2.60
2022-12-05T11:18:56.542Z,2.60
2022-12-05T11:21:25.238Z,2.60
2022-12-05T11:23:53.392Z,2.60
2022-12-05T11:26:35.590Z,2.60
2022-12-05T11:29:05.929Z,2.60
2022-12-05T11:31:33.972Z,2.60
2022-12-05T11:34:05.791Z,2.60
2022-12-05T11:36:40.451Z,2.70
2022-12-05T11:39:13.575Z,2.60
2022-12-05T11:42:09.464Z,2.60
2022-12-05T11:45:05.545Z,2.60
2022-12-05T11:47:45.978Z,2.60
2022-12-05T11:50:39.249Z,2.60
2022-12-05T11:53:26.434Z,2.70
2022-12-05T11:56:05.590Z,2.60
2022-12-05T11:59:00.504Z,2.60
2022-12-05T12:01:46.215Z,2.50
2022-12-05T12:04:31.988Z,2.50
2022-12-05T12:07:12.245Z,2.50
2022-12-05T12:09:48.635Z,2.50
2022-12-05T12:12:28.151Z,2.50
2022-12-05T12:15:11.317Z,2.50
2022-12-05T12:17:50.807Z,2.60
2022-12-05T12:20:35.131Z,2.60
2022-12-05T12:23:22.139Z,2.60
2022-12-05T12:26:01.250Z,2.50
2022-12-05T12:28:43.149Z,2.60
2022-12-05T12:31:25.338Z,2.60
2022-12-05T12:34:06.343Z,2.60
2022-12-05T12:36:41.155Z,2.50
2022-12-05T12:39:26.800Z,2.60
2022-12-05T12:42:06.191Z,2.60
2022-12-05T12:45:18.452Z,2.60
2022-12-05T12:47:59.001Z,2.60
2022-12-05T12:50:34.216Z,2.60
2022-12-05T12:53:29.205Z,2.60
2022-12-05T12:56:05.286Z,2.60
2022-12-05T12:58:51.385Z,2.70
2022-12-05T13:01:28.319Z,2.60
2022-12-05T13:04:04.416Z,2.60
2022-12-05T13:06:40.687Z,2.60
2022-12-05T13:09:17.408Z,2.60
2022-12-05T13:11:46.661Z,2.60
2022-12-05T13:14:18.750Z,2.50
2022-12-05T13:16:51.326Z,2.70
2022-12-05T13:19:30.139Z,2.70
2022-12-05T13:22:01.300Z,2.60
2022-12-05T13:24:30.270Z,2.70
2022-12-05T13:27:02.181Z,2.70
2022-12-05T13:29:37.999Z,2.70
2022-12-05T13:32:09.747Z,2.70
2022-12-05T13:34:47.491Z,2.70
2022-12-05T13:37:41.932Z,2.70
2022-12-05T13:40:46.584Z,2.70
2022-12-05T13:43:18.680Z,2.70
2022-12-05T13:46:03.759Z,2.70
2022-12-05T13:48:35.297Z,2.70
2022-12-05T13:51:08.308Z,2.70
2022-12-05T13:53:43.502Z,2.70
2022-12-05T13:56:28.097Z,2.70
2022-12-05T13:58:58.311Z,2.70
2022-12-05T14:01:56.428Z,2.70
2022-12-05T14:04:48.202Z,2.70
2022-12-05T14:07:39.747Z,2.70
2022-12-05T14:10:11.130Z,2.70
2022-12-05T14:12:54.075Z,2.70
2022-12-05T14:15:34.872Z,2.70
2022-12-05T14:18:11.329Z,2.70
2022-12-05T14:20:59.381Z,2.70
2022-12-05T14:24:00.173Z,2.70
2022-12-05T14:26:52.352Z,2.70
2022-12-05T14:29:38.657Z,2.70
2022-12-05T14:32:19.301Z,2.70
2022-12-05T14:34:59.031Z,2.70
2022-12-05T14:37:31.116Z,2.70
2022-12-05T14:40:05.726Z,2.70
2022-12-05T14:42:39.966Z,2.70
2022-12-05T14:45:26.129Z,2.70
2022-12-05T14:47:58.682Z,2.70
2022-12-05T14:50:45.333Z,2.70
2022-12-05T14:53:24.190Z,2.60
2022-12-05T14:55:56.293Z,2.70
2022-12-05T14:58:37.352Z,2.70
2022-12-05T15:01:15.572Z,2.70
2022-12-05T15:03:53.603Z,2.70
2022-12-05T15:06:22.910Z,2.70
2022-12-05T15:09:21.155Z,2.70
2022-12-05T15:11:48.207Z,2.70
2022-12-05T15:14:21.179Z,2.70
2022-12-05T15:16:53.320Z,2.70
2022-12-05T15:19:29.972Z,2.70
2022-12-05T15:22:01.970Z,2.70
2022-12-05T15:24:39.034Z,2.60
2022-12-05T15:27:12.227Z,2.60
2022-12-05T15:29:42.103Z,2.60
2022-12-05T15:32:19.938Z,2.60
2022-12-05T15:34:54.544Z,2.70
2022-12-05T15:37:26.029Z,2.70
2022-12-05T15:39:56.387Z,2.70
2022-12-05T15:42:29.577Z,2.60
2022-12-05T15:45:23.645Z,2.60
2022-12-05T15:47:54.317Z,2.60
2022-12-05T15:50:30.131Z,2.60
2022-12-05T15:53:02.631Z,2.60
2022-12-05T15:55:39.343Z,2.70
2022-12-05T15:58:14.422Z,2.70
2022-12-05T16:00:49.148Z,2.70
2022-12-05T16:03:21.733Z,2.70
2022-12-05T16:05:55.062Z,2.70
2022-12-05T16:08:31.187Z,2.70
2022-12-05T16:11:03.514Z,2.70
2022-12-05T16:13:36.745Z,2.80
2022-12-05T16:16:07.375Z,2.70
2022-12-05T16:18:38.080Z,2.70
2022-12-05T16:21:37.989Z,2.70
2022-12-05T16:24:10.253Z,2.70
2022-12-05T16:26:42.576Z,2.70
2022-12-05T16:29:29.246Z,2.70
2022-12-05T16:32:00.251Z,2.70
2022-12-05T16:34:31.274Z,2.70
2022-12-05T16:36:59.580Z,2.80
2022-12-05T16:39:29.193Z,2.80
2022-12-05T16:41:57.427Z,2.80
2022-12-05T16:45:02.142Z,2.80
2022-12-05T16:48:05.121Z,2.80
2022-12-05T16:50:35.340Z,2.80
2022-12-05T16:53:20.328Z,2.80
2022-12-05T16:55:50.350Z,2.80
2022-12-05T16:58:24.366Z,2.80
2022-12-05T17:00:55.217Z,2.80
2022-12-05T17:03:34.576Z,2.80
2022-12-05T17:06:04.153Z,2.80
2022-12-05T17:08:32.113Z,2.80
2022-12-05T17:11:02.000Z,2.90
2022-12-05T17:13:31.650Z,2.80
2022-12-05T17:15:59.800Z,2.80
2022-12-05T17:18:31.702Z,2.90
2022-12-05T17:21:06.784Z,2.90
2022-12-05T17:23:34.847Z,3.00
2022-12-05T17:26:02.903Z,2.90
2022-12-05T17:28:31.067Z,2.90
2022-12-05T17:31:00.214Z,2.90
2022-12-05T17:33:29.568Z,2.90
2022-12-05T17:35:58.072Z,2.90
2022-12-05T17:38:26.139Z,2.90
2022-12-05T17:40:55.116Z,2.90
2022-12-05T17:43:25.345Z,2.90
2022-12-05T17:45:54.820Z,2.90
2022-12-05T17:48:23.220Z,2.90
2022-12-05T17:50:52.586Z,2.90
2022-12-05T17:53:24.379Z,3.00
2022-12-05T17:55:56.547Z,3.00
2022-12-05T17:58:24.888Z,3.00
2022-12-05T18:00:52.975Z,2.90
2022-12-05T18:03:21.132Z,2.90
2022-12-05T18:05:54.187Z,2.90
2022-12-05T18:08:24.320Z,2.90
2022-12-05T18:10:52.436Z,3.00
2022-12-05T18:13:21.413Z,3.00
2022-12-05T18:15:50.143Z,3.00
2022-12-05T18:18:21.795Z,3.00
2022-12-05T18:20:52.300Z,3.10
2022-12-05T18:23:21.889Z,3.00
2022-12-05T18:26:00.971Z,3.10
2022-12-05T18:28:29.224Z,3.10
2022-12-05T18:31:09.236Z,3.10
2022-12-05T18:33:39.805Z,3.00
2022-12-05T18:36:17.290Z,3.10
2022-12-05T18:38:52.067Z,3.10
2022-12-05T18:41:24.096Z,3.00
2022-12-05T18:43:52.261Z,3.00
2022-12-05T18:46:20.455Z,3.00
2022-12-05T18:48:48.917Z,3.00
2022-12-05T18:51:21.439Z,3.00
2022-12-05T18:53:53.214Z,3.10
2022-12-05T18:56:24.928Z,3.10
2022-12-05T18:58:56.057Z,3.10
2022-12-05T19:01:26.627Z,3.10
2022-12-05T19:03:56.084Z,3.20
2022-12-05T19:06:26.676Z,3.20
2022-12-05T19:08:56.917Z,3.20
2022-12-05T19:11:27.971Z,3.20
2022-12-05T19:13:57.000Z,3.10
2022-12-05T19:16:25.332Z,3.10
2022-12-05T19:18:55.893Z,3.20
2022-12-05T19:21:24.265Z,3.20
2022-12-05T19:23:52.498Z,3.20
2022-12-05T19:26:24.474Z,3.10
2022-12-05T19:28:52.923Z,3.20
2022-12-05T19:31:23.082Z,3.10
2022-12-05T19:33:52.861Z,3.20
2022-12-05T19:36:24.331Z,3.20
2022-12-05T19:38:54.157Z,3.20
2022-12-05T19:41:25.545Z,3.20
2022-12-05T19:43:54.480Z,3.20
2022-12-05T19:46:25.896Z,3.20
2022-12-05T19:48:54.252Z,3.20
2022-12-05T19:51:22.553Z,3.20
2022-12-05T19:53:50.888Z,3.20
2022-12-05T19:56:21.340Z,3.20
2022-12-05T19:58:52.179Z,3.20
2022-12-05T20:01:22.122Z,3.20
2022-12-05T20:03:52.200Z,3.20
2022-12-05T20:06:23.507Z,3.20
2022-12-05T20:08:53.408Z,3.20
2022-12-05T20:11:24.784Z,3.20
2022-12-05T20:13:56.263Z,3.30
2022-12-05T20:16:27.381Z,3.20
2022-12-05T20:18:58.137Z,3.20
2022-12-05T20:21:27.731Z,3.30
2022-12-05T20:24:03.331Z,3.30
2022-12-05T20:26:33.004Z,3.20
2022-12-05T20:29:04.182Z,3.40
2022-12-05T20:31:34.369Z,3.30
2022-12-05T20:34:03.479Z,3.20
2022-12-05T20:36:34.482Z,3.30
2022-12-05T20:39:08.432Z,3.30
2022-12-05T20:41:40.620Z,3.30
2022-12-05T20:44:11.517Z,3.30
2022-12-05T20:46:43.514Z,3.30
2022-12-05T20:49:13.175Z,3.30
2022-12-05T20:51:42.705Z,3.30
2022-12-05T20:54:12.715Z,3.30
2022-12-05T20:56:41.265Z,3.30
2022-12-05T20:59:16.621Z,3.30
2022-12-05T21:01:44.871Z,3.30
2022-12-05T21:04:14.458Z,3.30
2022-12-05T21:06:43.850Z,3.30
2022-12-05T21:09:15.937Z,3.30
2022-12-05T21:11:44.409Z,3.30
2022-12-05T21:14:13.830Z,3.30
2022-12-05T21:16:42.433Z,3.40
2022-12-05T21:19:10.648Z,3.40
2022-12-05T21:21:41.232Z,3.30
2022-12-05T21:24:13.536Z,3.40
2022-12-05T21:26:41.621Z,3.30
2022-12-05T21:29:10.700Z,3.40
2022-12-05T21:31:42.221Z,3.40
2022-12-05T21:34:15.634Z,3.40
2022-12-05T21:36:44.863Z,3.30
2022-12-05T21:39:13.273Z,3.30
2022-12-05T21:41:43.314Z,3.40
2022-12-05T21:44:14.853Z,3.40
2022-12-05T21:46:44.472Z,3.40
2022-12-05T21:49:12.775Z,3.30
2022-12-05T21:51:44.425Z,3.40
2022-12-05T21:54:16.435Z,3.40
2022-12-05T21:56:45.901Z,3.40
2022-12-05T21:59:13.869Z,3.40
2022-12-05T22:01:42.548Z,3.40
2022-12-05T22:04:12.314Z,3.30
2022-12-05T22:06:40.390Z,3.40
2022-12-05T22:09:08.571Z,3.30
2022-12-05T22:11:36.679Z,3.30
2022-12-05T22:14:05.099Z,3.30
2022-12-05T22:16:33.902Z,3.30
2022-12-05T22:19:02.553Z,3.30
2022-12-05T22:21:34.146Z,3.30
2022-12-05T22:24:02.460Z,3.30
2022-12-05T22:26:32.421Z,3.30
2022-12-05T22:29:00.539Z,3.30
2022-12-05T22:31:28.698Z,3.30
2022-12-05T22:33:56.731Z,3.30
2022-12-05T22:36:28.208Z,3.30
2022-12-05T22:39:00.544Z,3.30
2022-12-05T22:41:29.383Z,3.40
2022-12-05T22:44:00.441Z,3.40
2022-12-05T22:46:30.503Z,3.40
2022-12-05T22:48:59.340Z,3.40
2022-12-05T22:51:29.081Z,3.40
2022-12-05T22:53:59.371Z,3.30
2022-12-05T22:56:31.425Z,3.40
2022-12-05T22:59:02.156Z,3.30
2022-12-05T23:01:33.459Z,3.40
2022-12-05T23:04:03.444Z,3.30
2022-12-05T23:06:33.554Z,3.30
2022-12-05T23:09:04.745Z,3.30
2022-12-05T23:11:33.203Z,3.30
2022-12-05T23:14:02.641Z,3.30
2022-12-05T23:16:32.908Z,3.30
2022-12-05T23:19:05.626Z,3.30
2022-12-05T23:21:35.712Z,3.40
2022-12-05T23:24:09.516Z,3.40
2022-12-05T23:26:40.488Z,3.40
2022-12-05T23:29:09.532Z,3.40
2022-12-05T23:31:37.552Z,3.40
2022-12-05T23:34:06.514Z,3.30
2022-12-05T23:36:38.671Z,3.30
2022-12-05T23:39:08.213Z,3.30
2022-12-05T23:41:36.520Z,3.30
2022-12-05T23:44:04.816Z,3.30
2022-12-05T23:46:33.532Z,3.30
2022-12-05T23:49:05.634Z,3.30
2022-12-05T23:51:40.155Z,3.30
2022-12-05T23:54:13.502Z,3.30
2022-12-05T23:56:45.541Z,3.30
2022-12-05T23:59:14.132Z,3.30
